Time;durP1;ratioP1;P1;durP2;ratioP2;P2;SDS_P1;SDS_P2;PMS_P1;PMS_P2;Temp;Humidity;BMP_temperature;BMP_pressure;BME280_temperature;BME280_humidity;BME280_pressure;Samples;Min_cycle;Max_cycle;Signal;HPM_P1;HPM_P2
2022/07/06 00:00:49;;;;;;;2.20;2.00;;;;;;;17.63;64.40;100085.28;4961025;29;20494;-89
2022/07/06 00:03:15;;;;;;;3.50;2.72;;;;;;;17.60;65.33;100089.03;4959191;29;21036;-92
2022/07/06 00:05:41;;;;;;;6.20;3.03;;;;;;;17.55;65.49;100093.94;4946046;29;20223;-91
2022/07/06 00:08:17;;;;;;;4.30;2.50;;;;;;;17.51;65.46;100083.69;4962277;29;20227;-91
2022/07/06 00:10:48;;;;;;;5.87;2.90;;;;;;;17.46;65.60;100082.25;4966368;28;20470;-92
2022/07/06 00:13:17;;;;;;;2.90;2.30;;;;;;;17.40;65.68;100085.44;5000996;28;20553;-92
2022/07/06 00:16:03;;;;;;;;;;;;;;;;;;;;;
2022/07/06 00:18:38;;;;;;;3.43;2.60;;;;;;;17.19;66.50;100084.59;4996840;28;20894;-93
2022/07/06 00:21:19;;;;;;;3.40;2.70;;;;;;;17.07;66.83;100086.47;5001138;28;20479;-92
2022/07/06 00:23:58;;;;;;;;;;;;;;;;;;;;;
2022/07/06 00:26:40;;;;;;;3.43;2.70;;;;;;;17.06;66.81;100083.94;4988416;28;20479;-93
2022/07/06 00:29:13;;;;;;;3.10;2.80;;;;;;;17.11;66.48;100079.91;4976595;28;20461;-93
2022/07/06 00:31:39;;;;;;;3.03;2.73;;;;;;;17.16;66.46;100082.19;4982557;28;20534;-92
2022/07/06 00:34:14;;;;;;;5.60;3.30;;;;;;;17.20;66.49;100078.31;5003239;28;20277;-91
2022/07/06 00:36:44;;;;;;;5.53;3.50;;;;;;;17.21;66.36;100080.84;4980142;28;20511;-92
2022/07/06 00:39:37;;;;;;;3.20;2.90;;;;;;;17.19;66.39;100082.78;4963872;28;20672;-92
2022/07/06 00:42:04;;;;;;;2.80;2.60;;;;;;;17.18;66.76;100081.09;4966465;28;20573;-92
2022/07/06 00:44:33;;;;;;;3.00;2.80;;;;;;;17.15;66.71;100073.41;4979282;28;20451;-92
2022/07/06 00:47:38;;;;;;;3.30;2.40;;;;;;;17.14;66.74;100084.13;4984308;28;20543;-91
2022/07/06 00:50:28;;;;;;;2.50;2.20;;;;;;;17.18;66.60;100077.59;5002525;28;20451;-91
2022/07/06 00:53:00;;;;;;;3.37;3.07;;;;;;;17.21;66.45;100080.00;4990809;28;20474;-91
2022/07/06 00:55:40;;;;;;;;;;;;;;;;;;;;;
2022/07/06 00:58:22;;;;;;;;;;;;;;;;;;;;;
2022/07/06 01:00:50;;;;;;;2.53;2.33;;;;;;;17.16;66.50;100082.19;4966850;28;20559;-91
2022/07/06 01:03:31;;;;;;;;;;;;;;;;;;;;;
2022/07/06 01:06:03;;;;;;;3.40;3.10;;;;;;;17.07;66.78;100077.66;4980725;28;20476;-93
2022/07/06 01:08:58;;;;;;;2.80;2.60;;;;;;;16.98;67.32;100081.91;5002686;28;20494;-91
2022/07/06 01:11:42;;;;;;;;;;;;;;;;;;;;;
2022/07/06 01:14:39;;;;;;;;;;;;;;;;;;;;;
2022/07/06 01:17:22;;;;;;;2.83;2.63;;;;;;;16.55;68.36;100088.03;4971067;28;20957;-92
2022/07/06 01:20:05;;;;;;;3.90;2.97;;;;;;;16.39;68.81;100083.16;4972548;28;20435;-94
2022/07/06 01:22:46;;;;;;;3.33;3.03;;;;;;;16.26;69.04;100064.72;4995338;28;20566;-93
2022/07/06 01:25:50;;;;;;;;;;;;;;;;;;;;;
2022/07/06 01:28:21;;;;;;;3.67;2.87;;;;;;;16.15;69.29;100070.88;4966605;28;20486;-92
2022/07/06 01:30:53;;;;;;;4.80;3.67;;;;;;;16.11;69.62;100068.59;4995833;28;20904;-91
2022/07/06 01:33:44;;;;;;;3.80;2.97;;;;;;;16.06;69.68;100070.75;4983121;28;20464;-93
2022/07/06 01:36:24;;;;;;;4.00;3.20;;;;;;;15.99;69.75;100078.38;4991433;28;20206;-90
2022/07/06 01:39:13;;;;;;;2.87;2.63;;;;;;;15.97;70.02;100068.84;4985212;28;20461;-93
2022/07/06 01:41:47;;;;;;;3.10;2.90;;;;;;;15.88;70.35;100073.06;4968796;28;20474;-91
2022/07/06 01:44:25;;;;;;;3.40;2.73;;;;;;;15.81;70.71;100066.56;4965052;28;20606;-92
2022/07/06 01:47:13;;;;;;;3.13;2.93;;;;;;;15.77;70.78;100065.97;4973629;28;20444;-91
2022/07/06 01:49:52;;;;;;;;;;;;;;;;;;;;;
2022/07/06 01:53:13;;;;;;;5.03;3.17;;;;;;;15.89;70.59;100072.09;4994222;28;20534;-91
2022/07/06 01:56:17;;;;;;;3.43;2.80;;;;;;;15.79;70.87;100064.00;4910648;29;20529;-93
2022/07/06 01:59:12;;;;;;;3.70;3.40;;;;;;;15.78;70.96;100069.44;4862046;29;20587;-93
2022/07/06 02:01:40;;;;;;;3.60;3.10;;;;;;;15.74;71.18;100071.47;4951376;29;20452;-91
2022/07/06 02:04:06;;;;;;;2.80;2.57;;;;;;;15.72;71.30;100080.53;4959846;29;20495;-91
2022/07/06 02:06:42;;;;;;;3.00;2.80;;;;;;;15.73;71.24;100066.31;4955598;28;20220;-92
2022/07/06 02:09:18;;;;;;;3.07;2.77;;;;;;;15.76;71.12;100079.31;4954287;29;21029;-91
2022/07/06 02:11:46;;;;;;;3.87;3.17;;;;;;;15.75;70.95;100081.13;4958337;29;20457;-92
2022/07/06 02:14:19;;;;;;;3.77;2.93;;;;;;;15.68;71.39;100078.09;4923770;29;20525;-93
2022/07/06 02:16:57;;;;;;;;;;;;;;;;;;;;;
2022/07/06 02:19:46;;;;;;;3.10;2.80;;;;;;;15.58;71.21;100085.06;4927692;29;20475;-90
2022/07/06 02:22:14;;;;;;;3.27;2.97;;;;;;;15.56;71.23;100081.66;4935844;29;20520;-92
2022/07/06 02:24:53;;;;;;;;;;;;;;;;;;;;;
2022/07/06 02:27:28;;;;;;;3.00;2.67;;;;;;;15.56;70.63;100079.03;4894987;29;20459;-91
2022/07/06 02:30:00;;;;;;;3.13;2.83;;;;;;;15.55;70.37;100071.19;4922236;28;20494;-94
2022/07/06 02:32:29;;;;;;;5.65;3.42;;;;;;;15.50;70.56;100079.50;4941369;28;20518;-90
2022/07/06 02:34:55;;;;;;;2.83;2.63;;;;;;;15.45;70.80;100086.94;4976308;28;20225;-91
2022/07/06 02:37:33;;;;;;;3.30;3.10;;;;;;;15.44;70.85;100091.38;4961497;28;20465;-91
2022/07/06 02:40:12;;;;;;;;;;;;;;;;;;;;;
2022/07/06 02:42:42;;;;;;;3.93;3.00;;;;;;;15.45;71.17;100097.53;4967855;28;20474;-91
2022/07/06 02:45:13;;;;;;;4.37;2.90;;;;;;;15.50;70.96;100095.38;4946630;29;20459;-91
2022/07/06 02:47:39;;;;;;;4.07;3.67;;;;;;;15.50;71.11;100103.34;4951770;28;20548;-93
2022/07/06 02:50:18;;;;;;;;;;;;;;;;;;;;;
2022/07/06 02:52:55;;;;;;;;;;;;;;;;;;;;;
2022/07/06 02:55:33;;;;;;;3.00;2.70;;;;;;;15.22;72.04;100105.41;4972924;28;20574;-91
2022/07/06 03:00:56;;;;;;;3.77;3.10;;;;;;;15.16;72.01;100108.50;4961601;28;20438;-91
2022/07/06 03:03:32;;;;;;;4.32;3.22;;;;;;;15.16;72.82;100113.81;4977205;28;20848;-91
2022/07/06 03:06:24;;;;;;;3.13;2.83;;;;;;;15.13;72.65;100111.38;4989805;28;20565;-92
2022/07/06 03:09:02;;;;;;;3.53;3.23;;;;;;;15.14;72.57;100115.72;4987427;28;20454;-93
2022/07/06 03:11:41;;;;;;;;;;;;;;;;;;;;;
2022/07/06 03:14:29;;;;;;;3.13;2.83;;;;;;;15.16;72.05;100119.09;4966008;28;20472;-91
2022/07/06 03:17:00;;;;;;;2.83;2.60;;;;;;;15.18;72.06;100125.13;4994188;28;20646;-90
2022/07/06 03:23:04;;;;;;;6.33;3.13;;;;;;;15.15;71.46;100116.53;4971027;28;20741;-92
2022/07/06 03:25:30;;;;;;;3.23;3.03;;;;;;;15.10;71.63;100119.56;4964100;28;20822;-91
2022/07/06 03:28:18;;;;;;;;;;;;;;;;;;;;;
2022/07/06 03:31:00;;;;;;;3.93;3.37;;;;;;;14.99;71.66;100116.88;4989765;28;20464;-90
2022/07/06 03:33:54;;;;;;;3.92;3.45;;;;;;;14.89;71.63;100123.78;4988778;28;20841;-93
2022/07/06 03:37:01;;;;;;;5.33;4.30;;;;;;;14.77;71.91;100118.44;4986948;28;20689;-91
2022/07/06 03:39:30;;;;;;;3.97;3.67;;;;;;;14.72;72.01;100122.38;4987990;28;20464;-92
2022/07/06 03:42:16;;;;;;;9.77;3.73;;;;;;;14.66;71.86;100121.00;4988860;28;20830;-92
2022/07/06 03:48:18;;;;;;;4.97;3.07;;;;;;;14.77;71.62;100122.88;4987079;28;20468;-91
2022/07/06 03:51:02;;;;;;;3.40;3.20;;;;;;;14.75;71.56;100120.34;4985209;28;20441;-92
2022/07/06 03:53:31;;;;;;;6.83;3.70;;;;;;;14.83;71.40;100127.72;5009460;28;20443;-91
2022/07/06 03:58:40;;;;;;;3.20;2.90;;;;;;;14.92;71.17;100131.50;5021244;28;20206;-90
2022/07/06 04:01:16;;;;;;;;;;;;;;;;;;;;;
2022/07/06 04:03:52;;;;;;;6.10;3.40;;;;;;;15.03;70.97;100139.47;4974100;28;20230;-90
2022/07/06 04:06:40;;;;;;;4.93;4.60;;;;;;;15.05;70.75;100137.56;4970984;28;20970;-93
2022/07/06 04:09:27;;;;;;;;;;;;;;;;;;;;;
2022/07/06 04:11:55;;;;;;;3.63;3.03;;;;;;;15.08;70.58;100132.06;4978590;28;20540;-90
2022/07/06 04:14:20;;;;;;;3.30;3.00;;;;;;;15.12;70.10;100127.38;4969147;28;20541;-91
2022/07/06 04:16:47;;;;;;;3.37;2.70;;;;;;;15.15;69.65;100138.59;4951785;28;20281;-90
2022/07/06 04:19:16;;;;;;;3.63;3.23;;;;;;;15.25;69.46;100142.22;4982592;28;20458;-90
2022/07/06 04:21:42;;;;;;;5.47;3.10;;;;;;;15.36;69.08;100140.56;4986438;28;20452;-92
2022/07/06 04:24:17;;;;;;;4.47;3.83;;;;;;;15.42;68.69;100135.69;4989421;28;20446;-91
2022/07/06 04:26:49;;;;;;;3.97;3.47;;;;;;;15.44;68.34;100136.38;4948482;28;20542;-89
2022/07/06 04:29:26;;;;;;;4.13;3.73;;;;;;;15.50;68.18;100135.09;4965162;28;20463;-89
2022/07/06 04:31:52;;;;;;;5.63;3.43;;;;;;;15.57;67.98;100133.66;4951465;28;20461;-90
2022/07/06 04:34:17;;;;;;;3.43;3.13;;;;;;;15.58;67.67;100143.31;4949453;28;20439;-89
2022/07/06 04:36:43;;;;;;;5.07;4.67;;;;;;;15.53;67.54;100145.47;4938288;28;20268;-90
2022/07/06 04:39:21;;;;;;;5.53;3.50;;;;;;;15.52;67.40;100134.97;4944885;28;20208;-90
2022/07/06 04:41:49;;;;;;;4.00;3.23;;;;;;;15.53;67.23;100141.94;4943425;29;20439;-91
2022/07/06 04:44:15;;;;;;;2.93;2.73;;;;;;;15.64;67.22;100144.66;4926398;29;20464;-90
2022/07/06 04:46:40;;;;;;;4.47;3.40;;;;;;;15.79;66.91;100145.28;4939363;28;20473;-90
2022/07/06 04:49:06;;;;;;;6.33;3.83;;;;;;;15.93;66.19;100147.72;4963202;28;20330;-90
2022/07/06 04:51:37;;;;;;;3.23;3.03;;;;;;;16.03;66.07;100147.84;4960467;28;20214;-88
2022/07/06 04:54:05;;;;;;;3.80;3.50;;;;;;;16.65;64.13;100142.03;4965560;28;20511;-90
2022/07/06 04:56:38;;;;;;;4.57;3.00;;;;;;;18.27;58.96;100130.25;4952957;28;20503;-90
2022/07/06 04:59:23;;;;;;;6.47;3.30;;;;;;;20.01;53.68;100126.03;4955058;28;20562;-89
2022/07/06 05:01:48;;;;;;;4.37;3.20;;;;;;;21.12;50.70;100131.31;4949757;28;20611;-89
2022/07/06 05:04:25;;;;;;;;;;;;;;;;;;;;;
2022/07/06 05:07:15;;;;;;;5.53;3.20;;;;;;;22.93;45.64;100117.97;4962392;28;20222;-92
2022/07/06 05:09:50;;;;;;;4.90;2.90;;;;;;;23.17;44.71;100126.06;4962592;28;20578;-89
2022/07/06 05:12:16;;;;;;;3.73;3.43;;;;;;;23.52;43.72;100125.88;4948030;28;20454;-90
2022/07/06 05:14:44;;;;;;;3.50;3.03;;;;;;;23.60;43.20;100121.38;4948432;28;20455;-90
2022/07/06 05:17:11;;;;;;;3.40;2.90;;;;;;;24.22;41.83;100119.91;4945004;28;20455;-91
2022/07/06 05:19:47;;;;;;;4.30;3.20;;;;;;;24.35;41.42;100122.84;4950351;28;20463;-91
2022/07/06 05:22:21;;;;;;;3.53;3.23;;;;;;;25.00;40.38;100123.53;4949576;28;20459;-92
2022/07/06 05:27:27;;;;;;;4.43;3.23;;;;;;;26.04;38.35;100122.00;4946035;29;20544;-79
2022/07/06 05:29:53;;;;;;;4.37;3.90;;;;;;;26.57;37.03;100117.34;4921175;29;20899;-80
2022/07/06 05:32:19;;;;;;;3.07;2.87;;;;;;;26.83;36.95;100124.88;4913847;29;21030;-79
2022/07/06 05:34:45;;;;;;;4.00;3.33;;;;;;;26.88;36.54;100122.44;4913811;29;20207;-79
2022/07/06 05:37:10;;;;;;;3.70;3.40;;;;;;;26.85;36.63;100124.69;4927163;29;20241;-80
2022/07/06 05:39:38;;;;;;;4.63;3.30;;;;;;;26.86;36.72;100118.25;4912001;29;20322;-78
2022/07/06 05:42:05;;;;;;;4.40;4.00;;;;;;;27.24;35.82;100123.44;4914809;29;20270;-78
2022/07/06 05:44:31;;;;;;;4.10;3.70;;;;;;;27.52;35.56;100126.19;4914325;29;20435;-79
2022/07/06 05:50:11;;;;;;;3.90;3.60;;;;;;;27.65;34.97;100131.66;4915580;29;20570;-78
2022/07/06 05:52:29;;;;;;;4.00;3.70;;;;;;;28.81;33.09;100121.09;4922924;29;20775;-79
2022/07/06 05:54:55;;;;;;;5.43;3.60;;;;;;;29.13;32.85;100121.38;4925625;29;20459;-79
2022/07/06 05:57:20;;;;;;;5.43;3.30;;;;;;;29.44;32.30;100109.97;4919440;29;20372;-79
2022/07/06 05:59:46;;;;;;;5.70;3.57;;;;;;;29.99;31.14;100124.06;4906977;29;20285;-78
2022/07/06 06:02:11;;;;;;;4.13;3.70;;;;;;;30.34;30.86;100125.66;4906139;29;20654;-79
2022/07/06 06:04:38;;;;;;;3.77;3.47;;;;;;;30.63;30.00;100111.56;4906858;29;20458;-79
2022/07/06 06:07:04;;;;;;;4.60;4.20;;;;;;;30.74;29.67;100115.47;4906853;29;20451;-80
2022/07/06 06:09:29;;;;;;;5.07;3.20;;;;;;;30.86;29.53;100116.44;4924289;29;20234;-80
2022/07/06 06:11:55;;;;;;;4.00;3.70;;;;;;;30.95;29.43;100117.03;4907770;29;20606;-80
2022/07/06 06:14:20;;;;;;;4.33;3.40;;;;;;;31.06;29.34;100119.06;4925848;29;20203;-80
2022/07/06 06:16:46;;;;;;;5.13;3.97;;;;;;;31.01;28.97;100116.16;4906245;29;20235;-79
2022/07/06 06:19:12;;;;;;;6.10;4.10;;;;;;;30.49;29.18;100118.09;4906588;29;20227;-79
2022/07/06 06:21:37;;;;;;;6.37;4.50;;;;;;;30.30;29.73;100119.84;4924678;29;20592;-79
2022/07/06 06:24:02;;;;;;;7.97;3.90;;;;;;;30.19;30.09;100118.59;4925135;29;20652;-80
2022/07/06 06:26:28;;;;;;;4.40;4.10;;;;;;;30.16;30.22;100123.59;4928948;29;20269;-79
2022/07/06 06:28:53;;;;;;;4.90;3.70;;;;;;;30.17;30.31;100125.28;4931541;29;20210;-79
2022/07/06 06:31:19;;;;;;;4.40;4.00;;;;;;;30.35;29.98;100113.78;4931872;29;20222;-81
2022/07/06 06:33:44;;;;;;;5.03;4.47;;;;;;;30.41;29.55;100113.75;4929786;29;20684;-79
2022/07/06 06:36:09;;;;;;;4.97;4.47;;;;;;;30.30;29.44;100125.28;4926418;29;20237;-80
2022/07/06 06:38:35;;;;;;;5.60;4.40;;;;;;;30.29;29.75;100114.63;4925181;29;20211;-80
2022/07/06 06:41:01;;;;;;;5.77;4.70;;;;;;;30.46;29.38;100117.69;4924532;29;20318;-79
2022/07/06 06:43:27;;;;;;;4.30;3.77;;;;;;;30.19;29.50;100120.47;4927630;29;20572;-79
2022/07/06 06:46:01;;;;;;;4.10;3.80;;;;;;;30.05;29.75;100118.84;4916807;29;20477;-81
2022/07/06 06:48:26;;;;;;;3.30;3.00;;;;;;;30.60;28.93;100120.13;4931179;29;20583;-79
2022/07/06 06:50:51;;;;;;;3.97;3.40;;;;;;;31.08;28.32;100116.97;4924517;29;20234;-80
2022/07/06 06:53:17;;;;;;;4.50;3.93;;;;;;;31.06;28.23;100115.50;4926509;29;20219;-79
2022/07/06 06:55:42;;;;;;;6.27;3.83;;;;;;;30.70;29.21;100118.81;4929380;29;20218;-80
2022/07/06 06:58:08;;;;;;;6.70;3.10;;;;;;;30.89;28.47;100115.19;4923227;28;21027;-81
2022/07/06 07:00:33;;;;;;;6.77;3.70;;;;;;;31.30;27.90;100117.41;4924227;29;20207;-80
2022/07/06 07:02:59;;;;;;;4.70;4.30;;;;;;;31.09;27.81;100107.75;4926047;29;20489;-81
2022/07/06 07:05:24;;;;;;;3.93;3.63;;;;;;;30.76;28.81;100109.81;4909211;29;20804;-79
2022/07/06 07:07:50;;;;;;;4.87;4.40;;;;;;;31.10;28.33;100122.16;4926161;29;20592;-81
2022/07/06 07:10:15;;;;;;;4.77;4.30;;;;;;;30.98;28.17;100116.59;4940117;28;20246;-79
2022/07/06 07:12:46;;;;;;;3.70;3.40;;;;;;;30.93;28.24;100116.44;4922268;29;20211;-80
2022/07/06 07:15:11;;;;;;;3.80;3.40;;;;;;;31.39;27.87;100123.44;4927661;29;20234;-81
2022/07/06 07:17:37;;;;;;;3.33;3.03;;;;;;;31.55;27.93;100121.22;4927626;29;20463;-79
2022/07/06 07:20:04;;;;;;;4.23;3.60;;;;;;;31.62;27.75;100117.38;4925110;29;20486;-80
2022/07/06 07:22:29;;;;;;;4.60;3.80;;;;;;;31.87;27.25;100119.25;4927431;29;20199;-80
2022/07/06 07:24:54;;;;;;;3.90;3.60;;;;;;;31.90;26.91;100119.59;4928970;29;20509;-79
2022/07/06 07:27:20;;;;;;;5.00;4.30;;;;;;;31.83;26.96;100118.00;4946852;29;20273;-80
2022/07/06 07:29:45;;;;;;;3.67;2.73;;;;;;;32.10;26.79;100115.88;4943896;28;20223;-79
2022/07/06 07:32:11;;;;;;;4.60;3.80;;;;;;;31.93;26.62;100112.91;4943850;28;20491;-80
2022/07/06 07:34:36;;;;;;;5.10;3.80;;;;;;;31.75;26.96;100122.66;4949532;28;20202;-78
2022/07/06 07:37:01;;;;;;;4.23;3.83;;;;;;;31.34;26.87;100115.09;4951955;28;20317;-79
2022/07/06 07:39:27;;;;;;;5.23;3.90;;;;;;;30.51;27.77;100118.69;4946198;28;20230;-79
2022/07/06 07:41:52;;;;;;;4.07;3.70;;;;;;;30.26;28.60;100121.31;4946309;28;20221;-80
2022/07/06 07:44:18;;;;;;;4.17;3.63;;;;;;;30.01;28.87;100125.75;4945602;28;20207;-80
2022/07/06 07:46:43;;;;;;;4.43;3.50;;;;;;;30.35;28.82;100120.03;4949935;28;20238;-80
2022/07/06 07:49:09;;;;;;;3.90;3.60;;;;;;;30.36;28.59;100123.59;4944344;28;20709;-78
2022/07/06 07:51:36;;;;;;;3.83;3.23;;;;;;;30.73;27.96;100123.81;4940781;28;20223;-79
2022/07/06 07:54:01;;;;;;;3.43;3.13;;;;;;;31.43;27.50;100116.50;4956300;28;20469;-81
2022/07/06 07:56:27;;;;;;;4.33;3.93;;;;;;;31.39;27.17;100118.00;4944880;28;20552;-81
2022/07/06 07:58:52;;;;;;;6.53;4.03;;;;;;;30.78;28.24;100124.00;4943585;28;20460;-79
2022/07/06 08:01:22;;;;;;;6.43;3.75;;;;;;;31.13;27.76;100121.72;4929038;29;20475;-81
2022/07/06 08:03:47;;;;;;;4.83;3.90;;;;;;;31.81;26.76;100122.81;4946254;28;20523;-78
2022/07/06 08:06:13;;;;;;;3.67;3.37;;;;;;;31.70;27.09;100125.25;4946232;28;20702;-79
2022/07/06 08:08:38;;;;;;;5.73;4.10;;;;;;;31.20;27.26;100118.97;4945721;29;20206;-80
2022/07/06 08:11:03;;;;;;;4.50;4.10;;;;;;;31.11;27.88;100121.13;4946476;29;20241;-79
2022/07/06 08:13:29;;;;;;;4.83;3.57;;;;;;;31.34;26.95;100125.94;4945907;28;20289;-79
2022/07/06 08:15:54;;;;;;;3.70;3.33;;;;;;;31.52;26.70;100127.91;4945373;29;20219;-79
2022/07/06 08:18:20;;;;;;;2.90;2.70;;;;;;;31.44;26.61;100126.31;4946147;29;20273;-79
2022/07/06 08:20:45;;;;;;;3.70;3.40;;;;;;;31.53;26.63;100127.69;4945493;28;20219;-80
2022/07/06 08:23:10;;;;;;;4.70;3.80;;;;;;;31.31;27.27;100120.97;4945586;28;20717;-78
2022/07/06 08:25:36;;;;;;;3.80;3.50;;;;;;;31.33;27.27;100121.56;4944461;28;20629;-80
2022/07/06 08:28:01;;;;;;;3.97;3.40;;;;;;;31.16;27.62;100118.53;4945915;28;20253;-79
2022/07/06 08:30:27;;;;;;;4.40;3.00;;;;;;;30.19;29.31;100124.03;4945369;28;20640;-78
2022/07/06 08:32:52;;;;;;;6.33;3.30;;;;;;;29.18;31.16;100134.28;4945012;28;20214;-80
2022/07/06 08:35:18;;;;;;;3.87;3.57;;;;;;;28.45;32.37;100143.00;4943169;28;20429;-78
2022/07/06 08:37:43;;;;;;;5.23;3.10;;;;;;;28.01;33.18;100134.22;4945292;29;20206;-79
2022/07/06 08:40:09;;;;;;;3.80;3.50;;;;;;;27.76;34.10;100133.84;4945933;28;20235;-80
2022/07/06 08:42:36;;;;;;;4.00;2.93;;;;;;;27.60;34.28;100134.13;4945856;29;20202;-78
2022/07/06 08:45:05;;;;;;;5.30;4.10;;;;;;;27.58;34.10;100137.00;4944361;28;20218;-80
2022/07/06 08:47:30;;;;;;;2.93;2.73;;;;;;;27.44;34.53;100137.94;4947089;28;20536;-78
2022/07/06 08:49:57;;;;;;;3.83;3.40;;;;;;;26.99;35.94;100131.06;4927455;29;21060;-79
2022/07/06 08:52:24;;;;;;;4.13;3.30;;;;;;;26.52;36.56;100135.94;4946973;29;20508;-81
2022/07/06 08:54:50;;;;;;;3.50;2.80;;;;;;;26.42;37.01;100140.72;4939231;28;20537;-79
2022/07/06 08:57:15;;;;;;;3.73;3.27;;;;;;;26.52;36.58;100135.94;4945157;29;20883;-82
2022/07/06 08:59:41;;;;;;;4.60;3.80;;;;;;;26.57;36.29;100138.91;4946186;28;20478;-80
2022/07/06 09:02:06;;;;;;;3.30;2.70;;;;;;;26.65;36.48;100141.47;4942200;28;20476;-80
2022/07/06 09:04:35;;;;;;;4.93;3.70;;;;;;;26.75;36.31;100141.16;4928780;29;20639;-80
2022/07/06 09:07:00;;;;;;;4.63;3.87;;;;;;;26.88;35.98;100144.00;4944170;29;20305;-78
2022/07/06 09:12:12;;;;;;;3.90;3.50;;;;;;;27.28;35.77;100146.31;4937601;29;20234;-76
2022/07/06 09:14:37;;;;;;;4.17;3.40;;;;;;;27.26;35.50;100154.59;4942107;29;20762;-76
2022/07/06 09:17:06;;;;;;;3.17;2.90;;;;;;;27.29;35.51;100146.09;4944439;29;20729;-76
2022/07/06 09:19:33;;;;;;;5.10;3.40;;;;;;;27.43;35.30;100147.03;4944706;28;20221;-77
2022/07/06 09:22:00;;;;;;;3.90;3.40;;;;;;;27.48;35.52;100154.56;4943103;28;20464;-77
2022/07/06 09:24:26;;;;;;;5.50;3.50;;;;;;;27.32;36.02;100152.97;4943217;29;20557;-77
2022/07/06 09:26:55;;;;;;;5.23;3.20;;;;;;;27.35;35.94;100158.84;4944327;29;20454;-76
2022/07/06 09:29:27;;;;;;;3.83;2.70;;;;;;;27.51;35.73;100157.69;4944958;29;20465;-76
2022/07/06 09:32:05;;;;;;;3.20;3.00;;;;;;;27.65;35.27;100157.81;4944862;29;20492;-77
2022/07/06 09:34:45;;;;;;;3.33;3.07;;;;;;;27.67;34.59;100161.16;4943287;29;20481;-77
2022/07/06 09:37:11;;;;;;;5.30;3.20;;;;;;;27.75;34.92;100163.72;4946024;29;20877;-77
2022/07/06 09:39:37;;;;;;;3.67;3.37;;;;;;;27.77;34.48;100161.66;4943609;28;21005;-76
2022/07/06 09:42:04;;;;;;;3.50;3.20;;;;;;;27.76;33.75;100166.22;4946639;28;20454;-76
2022/07/06 09:44:32;;;;;;;3.73;2.50;;;;;;;27.78;33.64;100166.00;4943933;28;20227;-77
2022/07/06 09:47:00;;;;;;;5.03;2.60;;;;;;;27.77;33.93;100158.97;4948399;28;20462;-77
2022/07/06 09:49:26;;;;;;;9.03;3.73;;;;;;;27.98;33.60;100161.63;4926516;28;20553;-76
2022/07/06 09:51:56;;;;;;;4.43;3.27;;;;;;;28.03;33.57;100166.44;4945497;28;20458;-77
2022/07/06 09:54:21;;;;;;;3.13;2.77;;;;;;;28.05;33.61;100169.75;4943257;28;20470;-78
2022/07/06 09:56:55;;;;;;;6.60;3.10;;;;;;;27.97;33.56;100151.84;4925309;29;20486;-77
2022/07/06 09:59:26;;;;;;;3.77;3.47;;;;;;;27.65;34.27;100152.41;4945991;29;20275;-77
2022/07/06 10:01:54;;;;;;;4.03;3.33;;;;;;;27.79;34.46;100154.22;4945862;29;20833;-77
2022/07/06 10:04:20;;;;;;;2.93;2.60;;;;;;;28.01;33.73;100157.72;4944789;29;21205;-76
2022/07/06 10:06:47;;;;;;;4.93;2.73;;;;;;;28.05;33.62;100164.38;4944373;28;20450;-77
2022/07/06 10:09:14;;;;;;;4.70;2.93;;;;;;;28.20;33.10;100156.16;4944378;28;20472;-77
2022/07/06 10:11:44;;;;;;;6.47;3.30;;;;;;;28.13;33.80;100149.88;4929039;29;21025;-77
2022/07/06 10:14:11;;;;;;;3.50;3.20;;;;;;;28.00;33.45;100162.28;4945478;29;20469;-76
2022/07/06 10:16:38;;;;;;;4.43;3.00;;;;;;;28.22;33.58;100159.50;4945176;29;20604;-76
2022/07/06 10:19:06;;;;;;;4.83;3.20;;;;;;;28.47;32.54;100159.84;4947206;28;20458;-76
2022/07/06 10:21:32;;;;;;;4.70;3.13;;;;;;;28.27;32.94;100156.19;4945624;28;20474;-77
2022/07/06 10:24:00;;;;;;;6.17;3.17;;;;;;;28.42;33.05;100149.59;4945079;29;20457;-76
2022/07/06 10:26:26;;;;;;;5.97;3.40;;;;;;;28.53;32.99;100150.94;4943084;29;20542;-76
2022/07/06 10:28:52;;;;;;;4.97;3.20;;;;;;;28.61;32.60;100141.81;4944831;29;20510;-77
2022/07/06 10:31:19;;;;;;;2.93;2.60;;;;;;;28.63;32.39;100146.00;4943971;28;20487;-77
2022/07/06 10:33:46;;;;;;;4.03;2.57;;;;;;;28.71;32.15;100153.09;4944963;28;20438;-77
2022/07/06 10:36:13;;;;;;;3.90;2.70;;;;;;;28.89;31.65;100153.38;4944460;28;20516;-77
2022/07/06 10:38:39;;;;;;;4.77;2.93;;;;;;;29.13;30.73;100142.19;4937849;28;20470;-77
2022/07/06 10:41:06;;;;;;;5.77;3.37;;;;;;;29.03;30.76;100150.66;4941816;28;21100;-77
2022/07/06 10:43:36;;;;;;;2.77;2.57;;;;;;;28.96;30.80;100145.25;4943969;29;20213;-76
2022/07/06 10:46:16;;;;;;;3.13;2.83;;;;;;;29.09;30.87;100147.19;4940871;28;20696;-76
2022/07/06 10:48:46;;;;;;;3.10;2.80;;;;;;;29.14;30.33;100139.28;4944878;29;20453;-76
2022/07/06 10:51:22;;;;;;;2.80;2.50;;;;;;;29.24;30.18;100137.00;4945107;28;20967;-77
2022/07/06 10:53:55;;;;;;;3.13;2.80;;;;;;;29.33;30.10;100135.78;4945041;28;20483;-75
2022/07/06 10:56:37;;;;;;;5.07;3.30;;;;;;;29.21;30.56;100137.41;4938007;28;20489;-77
2022/07/06 10:59:10;;;;;;;3.90;3.50;;;;;;;28.98;30.92;100136.94;4948695;28;20980;-77
2022/07/06 11:01:35;;;;;;;3.03;2.83;;;;;;;28.63;31.18;100139.75;4947529;28;20450;-77
2022/07/06 11:04:02;;;;;;;2.90;2.70;;;;;;;28.56;31.10;100133.50;4947001;28;20513;-76
2022/07/06 11:06:31;;;;;;;3.43;2.77;;;;;;;28.46;30.83;100128.44;4945265;29;20206;-77
2022/07/06 11:08:57;;;;;;;4.30;2.90;;;;;;;28.26;30.83;100139.16;4948051;28;20462;-77
2022/07/06 11:11:26;;;;;;;2.47;2.27;;;;;;;28.01;31.43;100133.41;4945841;28;21028;-76
2022/07/06 11:14:01;;;;;;;3.07;2.67;;;;;;;28.02;31.59;100130.47;4950164;29;20751;-77
2022/07/06 11:16:33;;;;;;;3.37;2.93;;;;;;;28.03;31.50;100131.34;4925688;29;20576;-76
2022/07/06 11:19:04;;;;;;;6.47;3.03;;;;;;;27.87;32.39;100126.22;4946470;29;20577;-77
2022/07/06 11:21:47;;;;;;;5.30;3.03;;;;;;;27.97;33.12;100132.94;4944185;29;20853;-77
2022/07/06 11:24:15;;;;;;;3.47;3.10;;;;;;;27.90;33.28;100126.69;4946582;29;20533;-77
2022/07/06 11:26:42;;;;;;;3.10;2.90;;;;;;;27.85;32.94;100123.75;4944787;29;20461;-76
2022/07/06 11:29:10;;;;;;;3.10;2.80;;;;;;;27.94;32.48;100125.25;4948318;28;20452;-77
2022/07/06 11:31:38;;;;;;;3.23;2.93;;;;;;;28.13;32.37;100122.88;4943507;28;20461;-77
2022/07/06 11:34:05;;;;;;;2.60;2.40;;;;;;;28.16;32.17;100117.88;4947869;29;20458;-76
2022/07/06 11:36:31;;;;;;;3.53;3.23;;;;;;;27.98;31.97;100121.13;4927494;29;20486;-77
2022/07/06 11:38:57;;;;;;;3.67;3.37;;;;;;;27.74;32.37;100118.88;4945085;28;20753;-77
2022/07/06 11:41:22;;;;;;;4.97;2.50;;;;;;;27.61;32.77;100113.38;4943599;29;20510;-76
2022/07/06 11:43:50;;;;;;;3.43;3.13;;;;;;;27.57;33.18;100118.31;4947413;28;20773;-76
2022/07/06 11:46:35;;;;;;;4.10;3.70;;;;;;;27.70;33.51;100117.56;4943520;28;20472;-76
2022/07/06 11:49:02;;;;;;;3.57;3.27;;;;;;;27.90;32.85;100106.97;4947888;28;20452;-76
2022/07/06 11:51:30;;;;;;;4.03;3.10;;;;;;;27.80;32.56;100107.31;4947166;28;20478;-76
2022/07/06 11:53:59;;;;;;;3.77;3.47;;;;;;;27.44;33.37;100112.84;4948859;28;20454;-77
2022/07/06 11:56:26;;;;;;;3.87;3.57;;;;;;;27.31;33.82;100108.97;4943970;29;20489;-75
2022/07/06 11:58:57;;;;;;;6.93;3.10;;;;;;;27.35;33.99;100109.41;4946147;28;20458;-76
2022/07/06 12:01:24;;;;;;;4.03;2.97;;;;;;;27.42;33.89;100104.09;4947216;28;20497;-76
2022/07/06 12:03:51;;;;;;;3.30;3.00;;;;;;;27.36;34.31;100101.16;4947270;28;20480;-76
2022/07/06 12:06:19;;;;;;;3.80;3.50;;;;;;;27.26;33.96;100102.50;4946612;28;20462;-76
2022/07/06 12:08:52;;;;;;;4.33;3.17;;;;;;;27.24;35.05;100096.47;4947966;28;20473;-77
2022/07/06 12:11:26;;;;;;;4.03;3.10;;;;;;;27.07;34.92;100094.00;4959820;28;20597;-77
2022/07/06 12:13:54;;;;;;;5.20;3.57;;;;;;;27.01;35.13;100091.25;4950831;28;20830;-76
2022/07/06 12:16:22;;;;;;;3.70;3.40;;;;;;;26.92;35.50;100095.91;4951734;28;20532;-77
2022/07/06 12:18:49;;;;;;;5.63;3.50;;;;;;;26.96;34.74;100091.00;4948370;29;20528;-77
2022/07/06 12:21:17;;;;;;;4.40;3.90;;;;;;;26.52;34.64;100084.75;4948291;28;20474;-77
2022/07/06 12:23:51;;;;;;;3.57;3.27;;;;;;;26.29;35.19;100090.22;4946857;29;20826;-77
2022/07/06 12:26:19;;;;;;;3.50;3.20;;;;;;;26.37;35.92;100090.09;4943280;29;20463;-76
2022/07/06 12:28:47;;;;;;;3.90;3.27;;;;;;;26.48;36.14;100083.41;4946201;28;20873;-77